createdAt,value
2023-04-27T00:02:08.163Z,0.57
2023-04-27T00:04:35.206Z,1.00
2023-04-27T00:07:04.737Z,1.25
2023-04-27T00:09:31.538Z,1.02
2023-04-27T00:11:58.298Z,1.00
2023-04-27T00:14:28.625Z,1.48
2023-04-27T00:16:56.255Z,0.88
2023-04-27T00:19:23.531Z,1.25
2023-04-27T00:21:50.336Z,0.82
2023-04-27T00:24:17.120Z,1.27
2023-04-27T00:26:43.909Z,1.08
2023-04-27T00:29:10.745Z,1.17
2023-04-27T00:31:37.742Z,0.90
2023-04-27T00:34:04.582Z,1.27
2023-04-27T00:36:34.268Z,1.30
2023-04-27T00:39:01.162Z,1.58
2023-04-27T00:41:27.929Z,2.63
2023-04-27T00:43:54.698Z,2.33
2023-04-27T00:46:21.657Z,1.60
2023-04-27T00:48:48.834Z,2.90
2023-04-27T00:51:15.853Z,2.45
2023-04-27T00:53:43.416Z,1.65
2023-04-27T00:56:10.187Z,2.13
2023-04-27T00:58:37.225Z,0.88
2023-04-27T01:01:05.583Z,0.82
2023-04-27T01:03:32.787Z,0.73
2023-04-27T01:06:01.954Z,0.70
2023-04-27T01:08:29.684Z,1.10
2023-04-27T01:10:56.587Z,1.25
2023-04-27T01:13:23.701Z,0.90
2023-04-27T01:15:50.620Z,0.95
2023-04-27T01:18:17.368Z,0.82
2023-04-27T01:20:45.104Z,0.95
2023-04-27T01:23:17.285Z,1.42
2023-04-27T01:25:44.811Z,1.50
2023-04-27T01:28:12.003Z,0.93
2023-04-27T01:30:38.802Z,0.60
2023-04-27T01:33:05.692Z,0.60
2023-04-27T01:35:32.457Z,1.10
2023-04-27T01:37:59.694Z,1.10
2023-04-27T01:40:26.477Z,1.00
2023-04-27T01:42:53.260Z,0.98
2023-04-27T01:45:19.990Z,1.20
2023-04-27T01:47:46.807Z,0.85
2023-04-27T01:50:13.635Z,1.02
2023-04-27T01:52:40.426Z,0.60
2023-04-27T01:55:07.968Z,0.70
2023-04-27T01:57:34.705Z,0.80
2023-04-27T02:00:01.498Z,0.60
2023-04-27T02:02:28.476Z,1.65
2023-04-27T02:04:55.331Z,0.90
2023-04-27T02:07:22.236Z,0.85
2023-04-27T02:09:49.022Z,0.77
2023-04-27T02:12:15.889Z,1.02
2023-04-27T02:14:42.760Z,1.15
2023-04-27T02:17:09.599Z,0.82
2023-04-27T02:19:36.425Z,1.38
2023-04-27T02:22:04.072Z,0.82
2023-04-27T02:24:30.983Z,1.02
2023-04-27T02:26:57.890Z,0.95
2023-04-27T02:29:24.613Z,1.00
2023-04-27T02:31:51.940Z,0.90
2023-04-27T02:34:18.708Z,1.10
2023-04-27T02:36:45.666Z,0.65
2023-04-27T02:39:12.852Z,0.80
2023-04-27T02:41:39.841Z,0.63
2023-04-27T02:44:06.574Z,0.57
2023-04-27T02:46:33.481Z,0.63
2023-04-27T02:49:00.308Z,0.45
2023-04-27T02:51:27.662Z,0.75
2023-04-27T02:53:57.984Z,1.00
2023-04-27T02:56:24.701Z,0.77
2023-04-27T02:58:51.902Z,0.60
2023-04-27T03:01:22.549Z,1.13
2023-04-27T03:03:49.548Z,1.40
2023-04-27T03:06:16.465Z,0.70
2023-04-27T03:08:43.260Z,0.85
2023-04-27T03:11:10.010Z,1.15
2023-04-27T03:13:41.963Z,0.93
2023-04-27T03:16:09.358Z,1.30
2023-04-27T03:18:36.250Z,1.02
2023-04-27T03:21:12.674Z,1.13
2023-04-27T03:23:40.002Z,0.73
2023-04-27T03:26:08.503Z,0.60
2023-04-27T03:28:35.535Z,0.90
2023-04-27T03:31:09.025Z,0.57
2023-04-27T03:33:36.469Z,0.70
2023-04-27T03:36:04.513Z,1.58
2023-04-27T03:38:31.690Z,1.02
2023-04-27T03:40:58.978Z,0.82
2023-04-27T03:43:26.561Z,1.15
2023-04-27T03:45:53.843Z,0.80
2023-04-27T03:48:25.869Z,0.73
2023-04-27T03:50:52.687Z,0.88
2023-04-27T03:53:19.642Z,0.50
2023-04-27T03:55:47.438Z,0.93
2023-04-27T03:58:14.380Z,1.20
2023-04-27T04:00:41.174Z,0.80
2023-04-27T04:03:08.762Z,0.52
2023-04-27T04:05:36.029Z,1.77
2023-04-27T04:08:02.817Z,0.90
2023-04-27T04:10:29.704Z,0.95
2023-04-27T04:12:56.523Z,1.15
2023-04-27T04:15:23.273Z,0.75
2023-04-27T04:17:50.308Z,0.80
2023-04-27T04:20:17.568Z,0.95
2023-04-27T04:22:44.440Z,0.73
2023-04-27T04:25:14.017Z,2.42
2023-04-27T04:27:41.367Z,3.38
2023-04-27T04:30:08.594Z,1.65
2023-04-27T04:32:40.243Z,1.17
2023-04-27T04:35:07.268Z,1.80
2023-04-27T04:37:35.503Z,1.73
2023-04-27T04:40:11.641Z,1.63
2023-04-27T04:42:38.583Z,0.90
2023-04-27T04:45:06.087Z,1.45
2023-04-27T04:47:34.106Z,0.80
2023-04-27T04:50:01.558Z,2.05
2023-04-27T04:52:28.315Z,0.80
2023-04-27T04:54:55.188Z,0.85
2023-04-27T04:57:22.253Z,0.82
2023-04-27T04:59:49.084Z,1.02
2023-04-27T05:02:16.149Z,1.00
2023-04-27T05:04:43.058Z,0.80
2023-04-27T05:07:14.081Z,0.95
2023-04-27T05:09:41.720Z,1.20
2023-04-27T05:12:08.558Z,1.42
2023-04-27T05:14:35.814Z,0.80
2023-04-27T05:17:02.738Z,1.00
2023-04-27T05:19:31.081Z,1.02
2023-04-27T05:21:59.061Z,1.13
2023-04-27T05:24:26.953Z,0.50
2023-04-27T05:26:54.940Z,0.77
2023-04-27T05:29:22.344Z,1.13
2023-04-27T05:31:49.347Z,0.47
2023-04-27T05:34:16.534Z,0.40
2023-04-27T05:36:43.393Z,0.57
2023-04-27T05:39:10.696Z,0.50
2023-04-27T05:41:37.501Z,1.27
2023-04-27T05:44:04.597Z,1.13
2023-04-27T05:46:31.779Z,0.60
2023-04-27T05:48:58.722Z,0.70
2023-04-27T05:51:25.978Z,1.17
2023-04-27T05:53:55.342Z,0.98
2023-04-27T05:56:22.716Z,0.95
2023-04-27T05:58:49.527Z,0.82
2023-04-27T06:01:16.462Z,1.13
2023-04-27T06:03:43.437Z,0.55
2023-04-27T06:06:10.338Z,0.70
2023-04-27T06:08:37.583Z,1.42
2023-04-27T06:11:04.459Z,0.60
2023-04-27T06:13:33.066Z,0.55
2023-04-27T06:16:01.014Z,0.88
2023-04-27T06:18:28.056Z,1.25
2023-04-27T06:21:00.173Z,0.98
2023-04-27T06:23:26.997Z,0.65
2023-04-27T06:25:53.740Z,0.70
2023-04-27T06:28:20.539Z,2.00
2023-04-27T06:30:47.421Z,1.00
2023-04-27T06:33:14.172Z,1.27
2023-04-27T06:35:41.273Z,0.90
2023-04-27T06:38:08.250Z,2.65
2023-04-27T06:40:36.332Z,2.53
2023-04-27T06:43:03.266Z,2.97
2023-04-27T06:45:30.065Z,3.55
2023-04-27T06:47:57.142Z,2.35
2023-04-27T06:50:23.905Z,4.20
2023-04-27T06:52:50.735Z,1.77
2023-04-27T06:55:17.540Z,2.33
2023-04-27T06:57:44.248Z,1.98
2023-04-27T07:00:13.370Z,1.33
2023-04-27T07:02:40.236Z,4.07
2023-04-27T07:05:07.348Z,3.85
2023-04-27T07:07:34.360Z,3.40
2023-04-27T07:10:01.448Z,1.65
2023-04-27T07:12:28.415Z,1.30
2023-04-27T07:14:55.617Z,1.35
2023-04-27T07:17:22.443Z,3.85
2023-04-27T07:19:49.257Z,2.45
2023-04-27T07:22:16.234Z,1.40
2023-04-27T07:24:42.997Z,2.65
2023-04-27T07:27:10.309Z,1.33
2023-04-27T07:29:37.993Z,1.65
2023-04-27T07:32:08.824Z,1.10
2023-04-27T07:34:49.079Z,1.92
2023-04-27T07:37:20.029Z,5.00
2023-04-27T07:39:48.746Z,2.40
2023-04-27T07:42:16.020Z,3.42
2023-04-27T07:44:42.896Z,2.15
2023-04-27T07:47:10.110Z,2.00
2023-04-27T07:49:37.699Z,1.95
2023-04-27T07:52:05.135Z,1.50
2023-04-27T07:54:32.317Z,1.20
2023-04-27T07:56:59.521Z,2.78
2023-04-27T07:59:30.927Z,2.83
2023-04-27T08:02:17.049Z,4.80
2023-04-27T08:04:46.008Z,4.30
2023-04-27T08:07:14.068Z,6.90
2023-04-27T08:09:41.329Z,7.72
2023-04-27T08:12:08.473Z,5.10
2023-04-27T08:14:36.493Z,3.35
2023-04-27T08:17:03.782Z,3.47
2023-04-27T08:19:31.126Z,4.25
2023-04-27T08:21:58.264Z,4.70
2023-04-27T08:24:25.382Z,6.72
2023-04-27T08:26:52.595Z,4.03
2023-04-27T08:29:27.940Z,3.45
2023-04-27T08:31:57.079Z,3.75
2023-04-27T08:34:24.461Z,3.38
2023-04-27T08:36:51.685Z,3.40
2023-04-27T08:39:19.143Z,3.65
2023-04-27T08:41:46.612Z,6.18
2023-04-27T08:44:13.827Z,1.65
2023-04-27T08:46:41.656Z,2.70
2023-04-27T08:49:09.845Z,2.25
2023-04-27T08:51:36.810Z,2.53
2023-04-27T08:54:03.775Z,4.38
2023-04-27T08:56:31.421Z,4.78
2023-04-27T08:59:00.743Z,3.45
2023-04-27T09:01:27.812Z,2.33
2023-04-27T09:03:59.250Z,4.07
2023-04-27T09:06:31.904Z,1.40
2023-04-27T09:08:59.624Z,3.40
2023-04-27T09:11:31.357Z,2.47
2023-04-27T09:13:59.893Z,5.13
2023-04-27T09:16:28.471Z,3.20
2023-04-27T09:18:56.554Z,2.58
2023-04-27T09:21:28.587Z,1.85
2023-04-27T09:23:56.329Z,5.10
2023-04-27T09:26:27.635Z,2.35
2023-04-27T09:28:57.784Z,2.60
2023-04-27T09:31:37.164Z,3.65
2023-04-27T09:34:04.673Z,4.05
2023-04-27T09:36:35.359Z,6.57
2023-04-27T09:39:06.115Z,2.45
2023-04-27T09:41:33.559Z,2.60
2023-04-27T09:44:02.093Z,3.75
2023-04-27T09:46:30.239Z,2.78
2023-04-27T09:48:58.343Z,4.50
2023-04-27T09:51:26.166Z,3.03
2023-04-27T09:53:58.493Z,4.65
2023-04-27T09:56:29.941Z,3.63
2023-04-27T09:59:03.640Z,2.22
2023-04-27T10:01:41.214Z,3.75
2023-04-27T10:04:27.579Z,2.95
2023-04-27T10:06:56.540Z,3.42
2023-04-27T10:09:25.071Z,4.93
2023-04-27T10:11:53.450Z,3.95
2023-04-27T10:14:21.797Z,3.08
2023-04-27T10:16:53.285Z,4.70
2023-04-27T10:19:21.315Z,2.70
2023-04-27T10:21:52.280Z,2.67
2023-04-27T10:24:19.447Z,6.50
2023-04-27T10:26:47.623Z,3.63
2023-04-27T10:29:16.526Z,3.88
2023-04-27T10:31:49.000Z,2.78
2023-04-27T10:34:21.681Z,2.92
2023-04-27T10:36:48.971Z,4.03
2023-04-27T10:39:19.775Z,3.72
2023-04-27T10:41:54.414Z,4.60
2023-04-27T10:44:29.210Z,3.88
2023-04-27T10:46:57.447Z,4.57
2023-04-27T10:49:24.826Z,2.38
2023-04-27T10:51:52.212Z,3.58
2023-04-27T10:54:19.520Z,3.58
2023-04-27T10:56:46.814Z,3.40
2023-04-27T10:59:14.306Z,4.32
2023-04-27T11:01:42.535Z,3.08
2023-04-27T11:04:09.847Z,3.80
2023-04-27T11:06:42.985Z,5.47
2023-04-27T11:09:11.210Z,3.38
2023-04-27T11:11:38.532Z,5.05
2023-04-27T11:14:05.950Z,3.45
2023-04-27T11:16:33.267Z,2.45
2023-04-27T11:19:05.627Z,1.40
2023-04-27T11:21:33.438Z,2.20
2023-04-27T11:24:10.980Z,2.42
2023-04-27T11:26:40.114Z,3.08
2023-04-27T11:29:16.353Z,2.10
2023-04-27T11:31:47.714Z,3.20
2023-04-27T11:34:19.373Z,2.58
2023-04-27T11:37:07.188Z,2.97
2023-04-27T11:39:42.054Z,4.18
2023-04-27T11:42:24.545Z,3.72
2023-04-27T11:44:54.711Z,2.17
2023-04-27T11:47:22.933Z,2.92
2023-04-27T11:49:51.415Z,4.03
2023-04-27T11:52:18.796Z,3.13
2023-04-27T11:54:53.516Z,3.42
2023-04-27T11:57:27.693Z,4.05
2023-04-27T11:59:55.765Z,4.18
2023-04-27T12:02:23.172Z,2.47
2023-04-27T12:04:50.906Z,3.72
2023-04-27T12:07:18.563Z,3.45
2023-04-27T12:09:46.041Z,2.97
2023-04-27T12:12:14.252Z,1.98
2023-04-27T12:14:41.567Z,2.22
2023-04-27T12:17:08.864Z,2.63
2023-04-27T12:19:37.297Z,3.65
2023-04-27T12:22:04.767Z,3.33
2023-04-27T12:24:32.570Z,4.88
2023-04-27T12:26:59.809Z,3.08
2023-04-27T12:29:27.040Z,2.58
2023-04-27T12:31:54.588Z,2.03
2023-04-27T12:34:22.137Z,1.58
2023-04-27T12:36:49.408Z,1.95
2023-04-27T12:39:17.654Z,1.95
2023-04-27T12:41:45.479Z,1.65
2023-04-27T12:44:13.342Z,2.65
2023-04-27T12:46:41.511Z,3.13
2023-04-27T12:49:09.190Z,3.00
2023-04-27T12:51:36.822Z,2.50
2023-04-27T12:54:04.342Z,2.40
2023-04-27T12:56:32.105Z,2.50
2023-04-27T12:58:59.320Z,1.52
2023-04-27T13:01:33.782Z,1.70
2023-04-27T13:04:02.314Z,2.60
2023-04-27T13:06:31.307Z,1.88
2023-04-27T13:08:59.066Z,2.63
2023-04-27T13:11:27.028Z,2.22
2023-04-27T13:13:55.176Z,1.73
2023-04-27T13:16:25.385Z,1.75
2023-04-27T13:18:53.490Z,2.35
2023-04-27T13:21:21.101Z,2.70
2023-04-27T13:23:49.308Z,1.67
2023-04-27T13:26:17.084Z,1.38
2023-04-27T13:28:44.366Z,1.45
2023-04-27T13:31:11.947Z,1.40
2023-04-27T13:33:41.472Z,1.35
2023-04-27T13:36:09.517Z,1.65
2023-04-27T13:38:36.799Z,1.33
2023-04-27T13:41:04.679Z,1.40
2023-04-27T13:43:32.046Z,2.60
2023-04-27T13:46:01.195Z,1.23
2023-04-27T13:48:28.939Z,2.22
2023-04-27T13:50:56.416Z,2.72
2023-04-27T13:53:26.925Z,1.88
2023-04-27T13:55:58.055Z,1.70
2023-04-27T13:58:26.378Z,2.20
2023-04-27T14:00:54.117Z,2.88
2023-04-27T14:03:22.771Z,2.50
2023-04-27T14:05:51.596Z,1.92
2023-04-27T14:08:19.203Z,2.20
2023-04-27T14:10:46.555Z,1.73
2023-04-27T14:13:13.869Z,2.33
2023-04-27T14:15:41.529Z,1.85
2023-04-27T14:18:09.217Z,0.80
2023-04-27T14:20:36.872Z,0.75
2023-04-27T14:23:04.937Z,2.80
2023-04-27T14:25:35.426Z,3.38
2023-04-27T14:28:06.567Z,3.40
2023-04-27T14:30:34.597Z,2.83
2023-04-27T14:33:02.748Z,1.67
2023-04-27T14:35:30.276Z,1.95
2023-04-27T14:38:02.049Z,0.93
2023-04-27T14:40:33.171Z,1.20
2023-04-27T14:43:00.477Z,1.67
2023-04-27T14:45:36.554Z,2.72
2023-04-27T14:48:07.520Z,2.65
2023-04-27T14:50:34.859Z,1.35
2023-04-27T14:53:02.284Z,1.17
2023-04-27T14:55:29.609Z,3.22
2023-04-27T14:57:56.867Z,2.20
2023-04-27T15:00:24.059Z,1.60
2023-04-27T15:02:51.341Z,1.95
2023-04-27T15:05:18.574Z,3.08
2023-04-27T15:07:45.930Z,1.70
2023-04-27T15:10:13.145Z,2.33
2023-04-27T15:12:40.767Z,1.10
2023-04-27T15:15:10.462Z,2.10
2023-04-27T15:17:38.009Z,1.45
2023-04-27T15:20:06.016Z,1.23
2023-04-27T15:22:33.379Z,1.45
2023-04-27T15:25:00.751Z,2.40
2023-04-27T15:27:27.967Z,2.25
2023-04-27T15:29:55.662Z,2.10
2023-04-27T15:32:24.626Z,1.27
2023-04-27T15:34:51.990Z,1.55
2023-04-27T15:37:19.409Z,1.95
2023-04-27T15:39:46.640Z,1.40
2023-04-27T15:42:13.834Z,1.10
2023-04-27T15:44:41.072Z,2.83
2023-04-27T15:47:08.869Z,1.98
2023-04-27T15:49:45.829Z,1.13
2023-04-27T15:52:21.200Z,3.63
2023-04-27T15:54:48.468Z,1.40
2023-04-27T15:57:15.655Z,0.70
2023-04-27T15:59:42.891Z,0.93
2023-04-27T16:02:10.161Z,1.45
2023-04-27T16:04:37.442Z,1.38
2023-04-27T16:07:07.470Z,0.93
2023-04-27T16:09:34.794Z,1.75
2023-04-27T16:12:03.834Z,1.70
2023-04-27T16:14:31.206Z,1.73
2023-04-27T16:17:00.838Z,1.17
2023-04-27T16:19:28.432Z,1.83
2023-04-27T16:21:55.960Z,1.20
2023-04-27T16:24:23.191Z,1.33
2023-04-27T16:26:50.429Z,2.25
2023-04-27T16:29:17.666Z,1.55
2023-04-27T16:31:45.519Z,1.67
2023-04-27T16:34:12.743Z,2.03
2023-04-27T16:36:40.171Z,0.70
2023-04-27T16:39:07.396Z,2.35
2023-04-27T16:41:35.090Z,0.82
2023-04-27T16:44:02.528Z,1.33
2023-04-27T16:46:29.846Z,1.65
2023-04-27T16:48:57.370Z,1.20
2023-04-27T16:51:24.593Z,1.15
2023-04-27T16:53:52.096Z,1.50
2023-04-27T16:56:29.565Z,0.80
2023-04-27T16:58:57.521Z,1.55
2023-04-27T17:01:31.438Z,1.10
2023-04-27T17:03:59.693Z,1.33
2023-04-27T17:06:28.117Z,0.80
2023-04-27T17:08:56.566Z,0.50
2023-04-27T17:11:23.982Z,0.70
2023-04-27T17:13:51.645Z,0.70
2023-04-27T17:16:19.684Z,0.60
2023-04-27T17:18:47.530Z,0.73
2023-04-27T17:21:14.881Z,0.63
2023-04-27T17:23:42.320Z,1.98
2023-04-27T17:26:10.666Z,1.20
2023-04-27T17:28:38.047Z,1.75
2023-04-27T17:31:05.535Z,0.80
2023-04-27T17:33:32.987Z,0.60
2023-04-27T17:36:00.592Z,0.70
2023-04-27T17:38:27.867Z,0.77
2023-04-27T17:40:55.320Z,1.25
2023-04-27T17:43:22.527Z,1.08
2023-04-27T17:45:50.347Z,1.08
2023-04-27T17:48:17.864Z,0.77
2023-04-27T17:50:45.350Z,0.50
2023-04-27T17:53:13.203Z,0.80
2023-04-27T17:55:40.598Z,0.60
2023-04-27T17:58:08.152Z,1.80
2023-04-27T18:00:35.750Z,1.20
2023-04-27T18:03:03.077Z,0.60
2023-04-27T18:05:30.551Z,0.50
2023-04-27T18:07:57.883Z,0.68
2023-04-27T18:10:25.126Z,0.50
2023-04-27T18:12:52.338Z,1.77
2023-04-27T18:15:19.844Z,0.98
2023-04-27T18:17:47.155Z,0.98
2023-04-27T18:20:15.593Z,0.70
2023-04-27T18:22:42.962Z,1.20
2023-04-27T18:25:10.535Z,0.40
2023-04-27T18:27:37.873Z,0.55
2023-04-27T18:30:05.558Z,0.43
2023-04-27T18:32:34.396Z,0.73
2023-04-27T18:35:02.542Z,0.60
2023-04-27T18:37:30.400Z,0.63
2023-04-27T18:39:57.587Z,0.40
2023-04-27T18:42:25.167Z,0.50
2023-04-27T18:44:59.938Z,0.50
2023-04-27T18:47:27.899Z,1.00
2023-04-27T18:49:55.322Z,0.50
2023-04-27T18:52:23.357Z,0.55
2023-04-27T18:54:50.794Z,0.47
2023-04-27T18:57:18.001Z,0.50
2023-04-27T18:59:45.268Z,0.60
2023-04-27T19:02:12.478Z,0.40
2023-04-27T19:04:42.994Z,0.50
2023-04-27T19:07:16.399Z,0.43
2023-04-27T19:09:43.603Z,0.28
2023-04-27T19:12:10.840Z,0.85
2023-04-27T19:14:38.058Z,0.30
2023-04-27T19:17:06.693Z,0.85
2023-04-27T19:19:35.333Z,0.40
2023-04-27T19:22:03.605Z,0.30
2023-04-27T19:24:30.810Z,0.40
2023-04-27T19:26:58.020Z,0.20
2023-04-27T19:29:28.769Z,0.52
2023-04-27T19:31:56.224Z,0.93
2023-04-27T19:34:23.456Z,0.40
2023-04-27T19:36:50.683Z,0.40
2023-04-27T19:39:19.943Z,0.47
2023-04-27T19:41:47.137Z,0.40
2023-04-27T19:44:14.656Z,0.43
2023-04-27T19:46:42.222Z,0.47
2023-04-27T19:49:09.575Z,0.70
2023-04-27T19:51:36.901Z,0.30
2023-04-27T19:54:04.193Z,0.40
2023-04-27T19:56:31.557Z,0.70
2023-04-27T19:58:58.821Z,0.57
2023-04-27T20:01:26.345Z,0.32
2023-04-27T20:03:54.072Z,0.40
2023-04-27T20:06:21.922Z,0.32
2023-04-27T20:08:49.548Z,0.40
2023-04-27T20:11:17.149Z,0.40
2023-04-27T20:13:44.499Z,0.30
2023-04-27T20:16:12.295Z,0.43
2023-04-27T20:18:39.537Z,0.65
2023-04-27T20:21:06.855Z,0.40
2023-04-27T20:23:34.261Z,0.40
2023-04-27T20:26:01.502Z,0.43
2023-04-27T20:28:30.450Z,0.60
2023-04-27T20:30:57.927Z,0.60
2023-04-27T20:33:25.136Z,0.50
2023-04-27T20:35:55.532Z,0.63
2023-04-27T20:38:24.312Z,0.57
2023-04-27T20:40:53.519Z,0.43
2023-04-27T20:43:21.171Z,1.52
2023-04-27T20:45:48.383Z,0.45
2023-04-27T20:48:15.921Z,0.90
2023-04-27T20:50:43.141Z,0.40
2023-04-27T20:53:10.836Z,0.32
2023-04-27T20:55:38.391Z,0.35
2023-04-27T20:58:05.909Z,0.40
2023-04-27T21:00:33.093Z,0.47
2023-04-27T21:03:01.054Z,0.50
2023-04-27T21:05:29.981Z,0.50
2023-04-27T21:07:58.358Z,0.40
2023-04-27T21:10:25.594Z,0.50
2023-04-27T21:12:52.833Z,0.40
2023-04-27T21:15:20.190Z,0.68
2023-04-27T21:17:47.437Z,0.40
2023-04-27T21:20:14.762Z,0.40
2023-04-27T21:22:41.975Z,0.43
2023-04-27T21:25:09.317Z,0.40
2023-04-27T21:27:36.567Z,0.40
2023-04-27T21:30:03.810Z,0.40
2023-04-27T21:32:31.124Z,0.45
2023-04-27T21:34:58.350Z,0.80
2023-04-27T21:37:25.912Z,0.40
2023-04-27T21:39:53.225Z,0.40
2023-04-27T21:42:20.433Z,0.50
2023-04-27T21:44:47.630Z,0.40
2023-04-27T21:47:14.849Z,0.40
2023-04-27T21:49:42.050Z,0.52
2023-04-27T21:52:10.471Z,0.50
2023-04-27T21:54:37.822Z,0.45
2023-04-27T21:57:05.049Z,0.30
2023-04-27T21:59:32.246Z,0.40
2023-04-27T22:01:59.870Z,0.63
2023-04-27T22:04:27.276Z,0.50
2023-04-27T22:06:54.612Z,0.55
2023-04-27T22:09:21.826Z,0.55
2023-04-27T22:11:49.078Z,0.50
2023-04-27T22:14:17.149Z,0.40
2023-04-27T22:16:44.655Z,0.50
2023-04-27T22:19:12.531Z,0.40
2023-04-27T22:21:39.741Z,0.50
2023-04-27T22:24:07.083Z,0.77
2023-04-27T22:26:34.360Z,0.65
2023-04-27T22:29:01.583Z,0.63
2023-04-27T22:31:28.898Z,0.50
2023-04-27T22:33:56.387Z,0.52
2023-04-27T22:36:24.259Z,0.50
2023-04-27T22:38:51.861Z,0.60
2023-04-27T22:41:19.302Z,0.75
2023-04-27T22:43:46.581Z,0.60
2023-04-27T22:46:13.982Z,0.60
2023-04-27T22:48:41.870Z,0.50
2023-04-27T22:51:09.982Z,0.57
2023-04-27T22:53:37.656Z,0.52
2023-04-27T22:56:05.984Z,0.80
2023-04-27T22:58:33.214Z,1.23
2023-04-27T23:01:00.531Z,0.38
2023-04-27T23:03:28.250Z,0.40
2023-04-27T23:05:55.627Z,0.40
2023-04-27T23:08:25.690Z,0.50
2023-04-27T23:10:53.291Z,0.50
2023-04-27T23:13:27.735Z,0.50
2023-04-27T23:15:55.129Z,0.85
2023-04-27T23:18:22.385Z,0.60
2023-04-27T23:20:58.463Z,0.52
2023-04-27T23:23:25.684Z,0.50
2023-04-27T23:25:52.889Z,0.68
2023-04-27T23:28:20.867Z,0.50
2023-04-27T23:30:55.087Z,0.82
2023-04-27T23:33:22.869Z,0.70
2023-04-27T23:35:50.118Z,1.27
2023-04-27T23:38:17.485Z,1.02
2023-04-27T23:40:44.718Z,1.15
2023-04-27T23:43:11.956Z,1.73
2023-04-27T23:45:39.198Z,1.40
2023-04-27T23:48:06.722Z,2.17
2023-04-27T23:50:34.163Z,1.85
2023-04-27T23:53:01.619Z,1.10
2023-04-27T23:55:28.918Z,2.25
2023-04-27T23:57:56.259Z,0.90
